Time;durP1;ratioP1;P1;durP2;ratioP2;P2;SDS_P1;SDS_P2;PMS_P1;PMS_P2;Temp;Humidity;BMP_temperature;BMP_pressure;BME280_temperature;BME280_humidity;BME280_pressure;Samples;Min_cycle;Max_cycle;Signal;HPM_P1;HPM_P2
2022/11/18 00:26:21;;;;;;;8.38;4.22;;;6.70;99.90;;;;;;6128253;22;20021;-92
2022/11/18 00:31:36;;;;;;;8.05;4.10;;;6.70;99.90;;;;;;6302695;22;20024;-93
2022/11/18 00:34:02;;;;;;;9.77;4.95;;;6.60;99.90;;;;;;6225701;22;20030;-91
2022/11/18 00:36:28;;;;;;;10.80;4.80;;;6.70;99.90;;;;;;6225223;22;20012;-92
2022/11/18 00:38:54;;;;;;;9.40;5.10;;;6.60;99.90;;;;;;6225771;22;20091;-93
2022/11/18 00:41:20;;;;;;;8.73;4.70;;;6.60;99.90;;;;;;6225543;22;20053;-91
2022/11/18 00:49:04;;;;;;;9.07;4.35;;;6.60;99.90;;;;;;6187072;22;20453;-93
2022/11/18 01:08:51;;;;;;;9.13;4.55;;;6.60;99.90;;;;;;6171495;23;20025;-91
2022/11/18 01:14:01;;;;;;;9.68;5.18;;;6.60;99.90;;;;;;6157111;23;20021;-91
2022/11/18 01:16:29;;;;;;;12.47;5.27;;;6.60;99.90;;;;;;6132953;23;20024;-91
2022/11/18 01:20:01;;;;;;;;;;;;;;;;;;;;;
2022/11/18 01:22:35;;;;;;;10.70;5.50;;;6.60;99.90;;;;;;6128963;23;20032;-91
2022/11/18 01:35:40;;;;;;;11.95;5.15;;;6.50;99.90;;;;;;6181763;23;20384;-92
2022/11/18 01:47:13;;;;;;;;;;;;;;;;;;;;;
2022/11/18 01:52:55;;;;;;;;;;;;;;;;;;;;;
2022/11/18 01:55:25;;;;;;;12.23;5.65;;;6.40;99.90;;;;;;6124096;23;20017;-91
2022/11/18 02:00:44;;;;;;;12.32;5.72;;;6.40;99.90;;;;;;6142977;22;20025;-93
2022/11/18 02:03:14;;;;;;;11.17;5.70;;;6.40;99.90;;;;;;6132578;23;20017;-91
2022/11/18 02:14:47;;;;;;;10.20;5.45;;;6.40;99.90;;;;;;6128804;23;20029;-92
2022/11/18 02:17:45;;;;;;;12.90;6.32;;;6.40;99.90;;;;;;6132424;23;20029;-92
2022/11/18 02:20:13;;;;;;;13.05;6.43;;;6.40;99.90;;;;;;6131656;23;20064;-91
2022/11/18 02:23:05;;;;;;;;;;;;;;;;;;;;;
2022/11/18 02:28:46;;;;;;;11.57;5.88;;;6.30;99.90;;;;;;6181338;23;20036;-92
2022/11/18 02:35:01;;;;;;;15.60;7.43;;;6.40;99.90;;;;;;6179021;23;20102;-93
2022/11/18 02:40:24;;;;;;;14.45;6.38;;;6.30;99.90;;;;;;6181365;23;20450;-91
2022/11/18 02:43:21;;;;;;;11.73;5.78;;;6.30;99.90;;;;;;6260278;22;20104;-92
2022/11/18 02:51:09;;;;;;;12.23;6.15;;;6.30;99.90;;;;;;6180066;23;20028;-93
2022/11/18 02:53:41;;;;;;;14.27;7.03;;;6.30;99.90;;;;;;6156559;23;20017;-92
2022/11/18 02:56:08;;;;;;;14.15;6.45;;;6.30;99.90;;;;;;6261462;22;20454;-93
2022/11/18 02:58:33;;;;;;;;;;;6.30;99.90;;;;;;6262259;22;20021;-91
2022/11/18 03:01:00;;;;;;;15.93;7.20;;;6.30;99.90;;;;;;6157930;23;19927;-92
2022/11/18 03:03:30;;;;;;;;;;;6.30;99.90;;;;;;6138326;22;20021;-90
2022/11/18 03:11:23;;;;;;;12.18;5.50;;;6.20;99.90;;;;;;6181053;23;20021;-93
2022/11/18 03:24:07;;;;;;;12.70;6.13;;;6.10;99.90;;;;;;6170267;23;20032;-91
2022/11/18 03:26:51;;;;;;;11.25;5.55;;;6.10;99.90;;;;;;6131790;23;20017;-92
2022/11/18 04:06:59;;;;;;;12.80;5.70;;;6.10;99.90;;;;;;6181210;23;20383;-92
2022/11/18 04:13:06;;;;;;;11.43;5.35;;;6.00;99.90;;;;;;6156648;23;20024;-91
2022/11/18 04:43:14;;;;;;;12.88;6.28;;;6.00;99.90;;;;;;6176102;23;20021;-94
2022/11/18 04:48:22;;;;;;;13.05;5.40;;;6.10;99.90;;;;;;6152793;23;20029;-94
2022/11/18 05:33:02;;;;;;;10.50;4.90;;;6.00;99.90;;;;;;6138360;22;20451;-95
2022/11/18 05:35:30;;;;;;;11.97;4.93;;;6.00;99.90;;;;;;6073694;23;20026;-94
2022/11/18 05:38:16;;;;;;;;;;;;;;;;;;;;;
2022/11/18 06:06:23;;;;;;;;;;;;;;;;;;;;;
2022/11/18 06:38:38;;;;;;;14.52;6.43;;;5.80;99.90;;;;;;6185327;23;20025;-89
2022/11/18 06:41:05;;;;;;;13.10;5.57;;;5.80;99.90;;;;;;6133489;23;20028;-93
2022/11/18 06:43:42;;;;;;;14.20;5.72;;;5.80;99.90;;;;;;6089208;23;20049;-95
2022/11/18 06:49:27;;;;;;;13.23;5.97;;;5.80;99.90;;;;;;6190880;23;20096;-89
2022/11/18 06:51:53;;;;;;;15.20;6.25;;;5.80;99.90;;;;;;6136171;23;20017;-90
2022/11/18 06:54:22;;;;;;;14.52;5.88;;;5.70;99.90;;;;;;6135525;23;20523;-90
2022/11/18 06:56:48;;;;;;;14.38;5.43;;;5.70;99.90;;;;;;6137378;23;20029;-91
2022/11/18 06:59:22;;;;;;;15.63;6.60;;;5.70;99.90;;;;;;6159674;23;20021;-91
2022/11/18 07:01:49;;;;;;;14.32;6.95;;;5.70;99.90;;;;;;6136147;23;20017;-92
2022/11/18 07:04:19;;;;;;;14.93;6.07;;;5.70;99.90;;;;;;6139093;23;20017;-92
2022/11/18 07:06:46;;;;;;;14.25;5.35;;;5.70;99.90;;;;;;6165514;23;20005;-92
2022/11/18 07:09:19;;;;;;;9.95;4.43;;;5.70;99.90;;;;;;6204047;22;20017;-91
2022/11/18 07:11:48;;;;;;;13.75;5.75;;;5.70;99.90;;;;;;6134327;23;20022;-91
2022/11/18 07:14:14;;;;;;;11.53;4.87;;;5.70;99.90;;;;;;6108244;23;20063;-93
2022/11/18 07:16:43;;;;;;;11.80;5.32;;;5.60;99.90;;;;;;6135453;23;20086;-89
2022/11/18 07:19:14;;;;;;;11.38;5.45;;;5.60;99.90;;;;;;6158194;23;20021;-95
2022/11/18 07:21:41;;;;;;;11.63;4.78;;;5.60;99.90;;;;;;6133151;23;20099;-91
2022/11/18 07:24:14;;;;;;;;;;;5.60;99.90;;;;;;6132939;23;20316;-92
2022/11/18 07:26:43;;;;;;;11.18;4.70;;;5.60;99.90;;;;;;6132109;23;19922;-91
2022/11/18 07:29:10;;;;;;;12.02;5.13;;;5.60;99.90;;;;;;6131887;23;20150;-90
2022/11/18 07:31:39;;;;;;;;;;;5.50;99.90;;;;;;6132779;23;20017;-91
2022/11/18 07:34:36;;;;;;;11.60;4.65;;;5.50;99.90;;;;;;6133337;23;19947;-89
2022/11/18 07:37:08;;;;;;;12.73;5.50;;;5.50;99.90;;;;;;6133510;23;20100;-90
2022/11/18 07:39:55;;;;;;;12.05;5.32;;;5.50;99.90;;;;;;6115651;23;20046;-93
2022/11/18 07:42:59;;;;;;;14.27;5.28;;;5.50;99.90;;;;;;6134118;23;20032;-90
2022/11/18 07:45:52;;;;;;;10.20;5.25;;;5.50;99.90;;;;;;6195190;23;20060;-94
2022/11/18 07:48:18;;;;;;;13.23;5.60;;;5.50;99.90;;;;;;6146185;23;20074;-92
2022/11/18 07:50:55;;;;;;;15.13;5.27;;;5.50;99.90;;;;;;6165127;23;20074;-91
2022/11/18 07:53:31;;;;;;;15.27;6.05;;;5.50;99.90;;;;;;6138094;23;20021;-91
2022/11/18 08:01:34;;;;;;;12.90;5.30;;;5.50;99.90;;;;;;6179307;23;20024;-90
2022/11/18 08:14:27;;;;;;;11.85;5.15;;;5.50;99.90;;;;;;6130927;22;20026;-90
2022/11/18 08:17:00;;;;;;;11.73;5.20;;;5.50;99.90;;;;;;6097179;23;20033;-91
2022/11/18 08:19:37;;;;;;;12.73;5.32;;;5.50;99.90;;;;;;6225240;22;20090;-95
2022/11/18 08:22:08;;;;;;;10.50;4.82;;;5.50;99.90;;;;;;6199912;22;20122;-93
2022/11/18 08:35:07;;;;;;;11.32;4.55;;;5.60;99.90;;;;;;6253840;22;20032;-89
2022/11/18 08:37:49;;;;;;;12.77;5.07;;;5.50;99.90;;;;;;6102605;23;20020;-90
2022/11/18 13:12:17;;;;;;;12.23;5.43;;;4.10;99.90;;;;;;6137569;23;20033;-88
2022/11/18 13:17:51;;;;;;;11.23;5.25;;;4.10;99.90;;;;;;6126372;23;20021;-90
2022/11/18 13:20:40;;;;;;;15.07;5.93;;;4.10;99.90;;;;;;6082229;23;20018;-90
2022/11/18 13:26:33;;;;;;;13.57;6.20;;;4.10;99.90;;;;;;6126659;23;20474;-94
2022/11/18 13:29:21;;;;;;;;;;;;;;;;;;;;;
2022/11/18 13:38:21;;;;;;;13.68;6.53;;;4.10;99.90;;;;;;6166726;23;20021;-89
2022/11/18 13:41:22;;;;;;;16.10;6.15;;;4.10;99.90;;;;;;6146984;23;20028;-90
2022/11/18 13:55:25;;;;;;;18.77;8.65;;;3.90;99.90;;;;;;6185863;23;20025;-89
2022/11/18 13:58:20;;;;;;;19.42;8.88;;;3.80;99.90;;;;;;6259333;22;20078;-89
2022/11/18 14:01:04;;;;;;;20.00;8.25;;;3.80;99.90;;;;;;6168712;23;20082;-90
2022/11/18 14:03:45;;;;;;;20.67;9.25;;;3.70;99.90;;;;;;6130352;23;20069;-90
2022/11/18 14:06:22;;;;;;;20.80;9.82;;;3.70;99.90;;;;;;6155337;23;20104;-93
2022/11/18 14:09:54;;;;;;;20.53;8.53;;;3.70;99.90;;;;;;6091998;23;20514;-88
2022/11/18 14:12:58;;;;;;;20.63;9.32;;;3.70;99.90;;;;;;6218651;23;20326;-89
2022/11/18 14:15:30;;;;;;;21.05;8.93;;;3.70;99.90;;;;;;6193090;23;20111;-89
2022/11/18 14:17:58;;;;;;;21.17;9.82;;;3.60;99.90;;;;;;6195130;23;20095;-90
2022/11/18 14:20:26;;;;;;;21.00;9.85;;;3.60;99.90;;;;;;6194873;23;20023;-94
2022/11/18 14:23:45;;;;;;;22.77;9.98;;;3.60;99.90;;;;;;6195063;23;20039;-91
2022/11/18 14:26:32;;;;;;;19.70;9.80;;;3.60;99.90;;;;;;6109389;23;20104;-92
2022/11/18 14:47:31;;;;;;;13.85;6.40;;;3.60;99.90;;;;;;6182322;23;20025;-90
2022/11/18 14:50:00;;;;;;;15.95;6.07;;;3.60;99.90;;;;;;6261487;22;20021;-92
2022/11/18 14:52:29;;;;;;;15.60;6.78;;;3.50;99.90;;;;;;6156029;23;20013;-92
2022/11/18 14:55:01;;;;;;;16.05;7.57;;;3.50;99.90;;;;;;6131975;23;20516;-89
2022/11/18 14:57:43;;;;;;;14.95;7.43;;;3.50;99.90;;;;;;6131640;23;20078;-90
2022/11/18 15:00:27;;;;;;;19.67;7.65;;;3.50;99.90;;;;;;6089389;23;20049;-92
2022/11/18 15:03:00;;;;;;;16.92;7.32;;;3.50;99.90;;;;;;6108027;23;20055;-90
2022/11/18 15:05:42;;;;;;;19.65;7.85;;;3.50;99.90;;;;;;6115337;23;20074;-92
2022/11/18 15:08:17;;;;;;;15.65;7.25;;;3.40;99.90;;;;;;6131845;23;20021;-91
2022/11/18 15:44:29;;;;;;;13.93;6.35;;;3.30;99.90;;;;;;6180687;23;20024;-91
2022/11/18 15:47:06;;;;;;;13.60;6.22;;;3.20;99.90;;;;;;6109975;23;20074;-92
2022/11/18 15:54:43;;;;;;;16.55;7.45;;;3.20;99.90;;;;;;6180204;22;20025;-88
2022/11/18 15:57:09;;;;;;;14.80;7.22;;;3.30;99.90;;;;;;6131046;23;20020;-87
2022/11/18 15:59:34;;;;;;;15.98;7.57;;;3.20;99.90;;;;;;6131200;23;20465;-87
2022/11/18 16:02:32;;;;;;;16.02;6.78;;;3.20;99.90;;;;;;6155793;23;20021;-88
2022/11/18 16:04:59;;;;;;;16.48;7.32;;;3.20;99.90;;;;;;6131243;23;20048;-89
2022/11/18 16:07:31;;;;;;;15.15;7.65;;;3.20;99.90;;;;;;6132249;23;20020;-89
2022/11/18 16:13:04;;;;;;;14.00;7.13;;;3.20;99.90;;;;;;6181792;23;20029;-91
2022/11/18 16:15:43;;;;;;;16.08;7.80;;;3.20;99.90;;;;;;6182463;22;20040;-89
2022/11/18 16:18:11;;;;;;;15.90;7.65;;;3.20;99.90;;;;;;6130855;23;20021;-89
2022/11/18 16:20:46;;;;;;;18.38;8.88;;;3.20;99.90;;;;;;6181767;23;20381;-89
2022/11/18 16:23:12;;;;;;;18.75;8.20;;;3.20;99.90;;;;;;6130817;23;20462;-90
2022/11/18 16:25:45;;;;;;;16.67;8.88;;;3.20;99.90;;;;;;6160365;23;20021;-89
2022/11/18 16:28:21;;;;;;;16.83;8.15;;;3.10;99.90;;;;;;6155233;23;20532;-89
2022/11/18 16:56:58;;;;;;;20.05;10.07;;;2.90;99.90;;;;;;6170687;23;20461;-90
2022/11/18 17:17:47;;;;;;;22.48;10.52;;;2.70;99.90;;;;;;6181138;22;20388;-88
2022/11/18 17:28:37;;;;;;;22.05;11.13;;;2.60;99.90;;;;;;6151799;23;20025;-88
2022/11/18 17:31:13;;;;;;;19.40;10.63;;;2.50;99.90;;;;;;6101439;23;20394;-90
2022/11/18 17:33:42;;;;;;;21.73;9.98;;;2.50;99.90;;;;;;6102506;23;20473;-89
2022/11/18 17:36:10;;;;;;;23.15;10.98;;;2.50;99.90;;;;;;6101663;23;20454;-88
2022/11/18 17:38:38;;;;;;;24.10;11.30;;;2.40;99.90;;;;;;6101095;23;20087;-88
2022/11/18 17:41:05;;;;;;;22.17;10.68;;;2.40;99.90;;;;;;6100876;23;20024;-86
2022/11/18 17:43:31;;;;;;;;;;;2.40;99.90;;;;;;6102877;23;20022;-89
2022/11/18 17:46:01;;;;;;;21.00;10.32;;;2.40;99.90;;;;;;6127390;23;19924;-90
2022/11/18 17:48:47;;;;;;;22.63;11.35;;;2.30;99.90;;;;;;6111390;23;20024;-87
2022/11/18 17:51:13;;;;;;;23.33;11.32;;;2.30;99.90;;;;;;6088043;23;20020;-88
2022/11/18 17:53:41;;;;;;;22.75;10.90;;;2.30;99.90;;;;;;6125716;23;20018;-88
2022/11/18 17:56:07;;;;;;;21.73;11.38;;;2.30;99.90;;;;;;6102351;23;20092;-90
2022/11/18 17:58:33;;;;;;;22.95;11.10;;;2.30;99.90;;;;;;6126193;23;20053;-88
2022/11/18 18:01:07;;;;;;;21.95;11.85;;;2.30;99.90;;;;;;6077614;23;20498;-88
2022/11/18 18:03:35;;;;;;;24.55;12.40;;;2.30;99.90;;;;;;6128053;23;20022;-89
2022/11/18 18:06:02;;;;;;;23.45;11.80;;;2.30;99.90;;;;;;6102558;23;20022;-88
2022/11/18 18:08:32;;;;;;;22.27;11.02;;;2.30;99.90;;;;;;6102139;23;20018;-89
2022/11/18 18:11:13;;;;;;;20.33;11.35;;;2.30;99.90;;;;;;6103093;23;20100;-87
2022/11/18 18:16:32;;;;;;;25.45;11.63;;;2.20;99.90;;;;;;6129604;22;20021;-89
2022/11/18 18:19:13;;;;;;;24.60;12.23;;;2.20;99.90;;;;;;6129320;23;20028;-90
2022/11/18 18:21:47;;;;;;;24.13;11.60;;;2.20;99.90;;;;;;6128698;23;20088;-89
2022/11/18 18:24:21;;;;;;;25.58;12.25;;;2.20;99.90;;;;;;6104548;23;20474;-88
2022/11/18 18:27:13;;;;;;;23.23;11.48;;;2.20;99.90;;;;;;6080204;23;20049;-91
2022/11/18 18:29:59;;;;;;;23.55;10.98;;;2.20;99.90;;;;;;6103237;23;20107;-91
2022/11/18 18:32:28;;;;;;;22.63;11.32;;;2.30;99.90;;;;;;6099190;23;20014;-89
2022/11/18 18:35:00;;;;;;;22.45;10.70;;;2.30;99.90;;;;;;6122401;23;20008;-90
2022/11/18 18:37:37;;;;;;;22.67;11.07;;;2.30;99.90;;;;;;6096560;23;20022;-91
2022/11/18 18:40:15;;;;;;;21.15;10.35;;;2.30;99.90;;;;;;6100262;23;20340;-91
2022/11/18 18:42:51;;;;;;;19.45;9.98;;;2.30;99.90;;;;;;6123797;23;20076;-89
2022/11/18 20:33:40;;;;;;;8.57;4.05;;;2.00;99.90;;;;;;6248505;22;20027;-88
2022/11/18 20:36:35;;;;;;;7.55;3.58;;;2.00;99.90;;;;;;6276857;22;20023;-88
2022/11/18 20:39:51;;;;;;;6.50;3.53;;;2.00;99.90;;;;;;6280470;22;20011;-88
2022/11/18 20:45:28;;;;;;;7.68;3.25;;;2.00;99.90;;;;;;6265833;22;20015;-88
2022/11/18 20:48:05;;;;;;;6.93;3.13;;;2.00;99.90;;;;;;6281648;22;20022;-88
2022/11/18 20:50:53;;;;;;;6.88;3.20;;;2.00;99.90;;;;;;6255067;22;20015;-91
2022/11/18 20:53:54;;;;;;;6.75;2.92;;;2.00;99.90;;;;;;6249289;22;20403;-91
2022/11/18 20:56:26;;;;;;;7.20;3.28;;;2.00;99.90;;;;;;6268846;22;20090;-88
2022/11/18 20:59:24;;;;;;;6.00;2.83;;;2.00;99.90;;;;;;6297966;22;20022;-88
2022/11/18 21:02:06;;;;;;;6.30;2.75;;;2.00;99.90;;;;;;6200350;23;20349;-88
2022/11/18 21:04:38;;;;;;;5.72;2.70;;;2.00;99.90;;;;;;6218602;23;20027;-89
2022/11/18 21:07:18;;;;;;;7.60;3.15;;;2.00;99.90;;;;;;6195168;23;20024;-89
2022/11/18 21:15:12;;;;;;;6.65;3.05;;;2.00;99.90;;;;;;6290795;22;20021;-89
2022/11/18 21:17:42;;;;;;;3.97;2.10;;;1.90;99.90;;;;;;6108803;23;20074;-88
2022/11/18 21:23:10;;;;;;;6.05;2.60;;;2.00;99.90;;;;;;6155421;23;20017;-89
2022/11/18 21:25:37;;;;;;;4.93;2.20;;;1.90;99.90;;;;;;6180519;23;20077;-88
2022/11/18 22:03:06;;;;;;;4.32;1.50;;;1.90;99.90;;;;;;6176782;22;20025;-89
2022/11/18 22:29:25;;;;;;;3.22;1.30;;;1.90;99.90;;;;;;6185087;23;20104;-88
2022/11/18 22:31:52;;;;;;;;;;;1.90;99.90;;;;;;6134407;23;20058;-92
2022/11/18 22:34:24;;;;;;;3.72;1.52;;;1.80;99.90;;;;;;6134207;23;19935;-90
2022/11/18 22:36:55;;;;;;;3.60;1.48;;;1.90;99.90;;;;;;6133051;23;20013;-89
2022/11/18 22:39:35;;;;;;;4.85;1.80;;;1.80;99.90;;;;;;6085092;23;20402;-89
2022/11/18 22:45:07;;;;;;;4.13;1.73;;;1.80;99.90;;;;;;6242733;22;20027;-88
2022/11/18 22:47:36;;;;;;;4.20;1.60;;;1.80;99.90;;;;;;6132289;23;20017;-88
2022/11/18 22:50:29;;;;;;;4.68;1.80;;;1.80;99.90;;;;;;6175124;23;20074;-88
2022/11/18 22:52:58;;;;;;;5.18;1.70;;;1.80;99.90;;;;;;6132337;23;20017;-89
2022/11/18 22:55:29;;;;;;;4.30;2.08;;;1.70;99.90;;;;;;6085165;23;20021;-90
2022/11/18 22:58:00;;;;;;;3.90;1.58;;;1.70;99.90;;;;;;6110610;23;20033;-91
2022/11/18 23:00:27;;;;;;;3.95;1.60;;;1.70;99.90;;;;;;6138571;23;20013;-88
2022/11/18 23:02:59;;;;;;;5.25;1.60;;;1.70;99.90;;;;;;6108685;23;20017;-88
2022/11/18 23:05:29;;;;;;;4.13;1.85;;;1.70;99.90;;;;;;6159827;23;20350;-88
2022/11/18 23:07:59;;;;;;;3.67;1.73;;;1.60;99.90;;;;;;6135086;23;20529;-90
2022/11/18 23:10:29;;;;;;;4.35;1.55;;;1.70;99.90;;;;;;6132366;23;20046;-90
2022/11/18 23:16:00;;;;;;;4.53;2.05;;;1.60;99.90;;;;;;6175553;23;20021;-89
2022/11/18 23:18:29;;;;;;;4.82;1.90;;;1.60;99.90;;;;;;6133186;23;20028;-89
2022/11/18 23:20:59;;;;;;;5.18;2.15;;;1.50;99.90;;;;;;6129860;23;20295;-86
2022/11/18 23:23:45;;;;;;;4.45;2.10;;;1.50;99.90;;;;;;6130746;23;20462;-88
2022/11/18 23:26:13;;;;;;;4.15;1.70;;;1.50;99.90;;;;;;6129801;23;20063;-87
2022/11/18 23:28:40;;;;;;;4.65;1.98;;;1.40;99.90;;;;;;6131937;23;20489;-91
2022/11/18 23:31:20;;;;;;;4.63;1.83;;;1.40;99.90;;;;;;6260327;22;20484;-90
2022/11/18 23:33:49;;;;;;;3.88;1.70;;;1.30;99.90;;;;;;6156556;23;20044;-96
2022/11/18 23:36:17;;;;;;;4.32;1.98;;;1.30;99.90;;;;;;6156371;23;20021;-93
2022/11/18 23:42:37;;;;;;;4.63;2.00;;;1.20;99.90;;;;;;6185051;22;20028;-96
2022/11/18 23:45:03;;;;;;;4.72;2.00;;;1.10;99.90;;;;;;6156592;23;20033;-91
2022/11/18 23:47:29;;;;;;;5.15;1.92;;;1.00;99.90;;;;;;6132855;23;20017;-91
2022/11/18 23:50:00;;;;;;;4.22;1.73;;;1.00;99.90;;;;;;6181987;22;20051;-90
2022/11/18 23:52:44;;;;;;;5.72;2.42;;;1.00;99.90;;;;;;6183138;23;20075;-91
2022/11/18 23:55:10;;;;;;;4.10;1.85;;;0.90;99.90;;;;;;6162645;23;20017;-95
2022/11/18 23:57:36;;;;;;;4.43;2.00;;;0.90;99.90;;;;;;6185726;22;20024;-91
